sensor_id;sensor_type;location;lat;lon;timestamp;pressure;altitude;pressure_sealevel;temperature;humidity
67818;BME280;54614;47.576;7.524;2024-03-08T00:00:10;98192.53;;;23.19;35.33
67818;BME280;54614;47.576;7.524;2024-03-08T00:02:48;98191.91;;;23.17;35.19
67818;BME280;54614;47.576;7.524;2024-03-08T00:05:16;98184.28;;;23.13;35.41
67818;BME280;54614;47.576;7.524;2024-03-08T00:07:43;98181.59;;;23.13;35.26
67818;BME280;54614;47.576;7.524;2024-03-08T00:10:12;98181.63;;;23.07;35.52
67818;BME280;54614;47.576;7.524;2024-03-08T00:12:44;98192.75;;;23.17;35.10
67818;BME280;54614;47.576;7.524;2024-03-08T00:15:12;98187.19;;;23.12;35.05
67818;BME280;54614;47.576;7.524;2024-03-08T00:17:40;98180.81;;;23.06;35.31
67818;BME280;54614;47.576;7.524;2024-03-08T00:20:07;98181.41;;;23.15;35.49
67818;BME280;54614;47.576;7.524;2024-03-08T00:22:39;98179.56;;;23.09;35.33
67818;BME280;54614;47.576;7.524;2024-03-08T00:25:07;98173.78;;;23.12;35.18
67818;BME280;54614;47.576;7.524;2024-03-08T00:27:37;98172.13;;;23.11;35.45
67818;BME280;54614;47.576;7.524;2024-03-08T00:30:04;98173.38;;;23.08;35.37
67818;BME280;54614;47.576;7.524;2024-03-08T00:32:31;98171.94;;;23.06;35.16
67818;BME280;54614;47.576;7.524;2024-03-08T00:34:57;98166.97;;;23.09;35.53
67818;BME280;54614;47.576;7.524;2024-03-08T00:37:24;98174.84;;;23.04;35.45
67818;BME280;54614;47.576;7.524;2024-03-08T00:39:51;98181.84;;;23.05;35.21
67818;BME280;54614;47.576;7.524;2024-03-08T00:42:18;98176.91;;;23.02;35.11
67818;BME280;54614;47.576;7.524;2024-03-08T00:44:44;98175.88;;;23.03;35.10
67818;BME280;54614;47.576;7.524;2024-03-08T00:47:10;98174.22;;;23.02;35.26
67818;BME280;54614;47.576;7.524;2024-03-08T00:49:37;98167.00;;;23.03;35.13
67818;BME280;54614;47.576;7.524;2024-03-08T00:52:07;98170.91;;;23.07;35.28
67818;BME280;54614;47.576;7.524;2024-03-08T00:54:34;98157.50;;;23.07;35.21
67818;BME280;54614;47.576;7.524;2024-03-08T00:57:02;98157.69;;;23.05;35.41
67818;BME280;54614;47.576;7.524;2024-03-08T00:59:31;98160.00;;;22.95;35.45
67818;BME280;54614;47.576;7.524;2024-03-08T01:02:00;98160.81;;;23.02;35.05
67818;BME280;54614;47.576;7.524;2024-03-08T01:04:27;98155.25;;;22.97;35.10
67818;BME280;54614;47.576;7.524;2024-03-08T01:06:59;98148.00;;;23.04;35.50
67818;BME280;54614;47.576;7.524;2024-03-08T01:09:26;98160.19;;;23.00;35.33
67818;BME280;54614;47.576;7.524;2024-03-08T01:11:53;98156.69;;;23.00;35.43
67818;BME280;54614;47.576;7.524;2024-03-08T01:14:23;98149.06;;;22.97;35.40
67818;BME280;54614;47.576;7.524;2024-03-08T01:16:51;98150.94;;;22.96;35.37
67818;BME280;54614;47.576;7.524;2024-03-08T01:19:17;98148.25;;;22.96;35.10
67818;BME280;54614;47.576;7.524;2024-03-08T01:21:43;98131.53;;;22.94;35.21
67818;BME280;54614;47.576;7.524;2024-03-08T01:24:09;98129.03;;;22.99;35.07
67818;BME280;54614;47.576;7.524;2024-03-08T01:26:35;98127.41;;;22.98;35.08
67818;BME280;54614;47.576;7.524;2024-03-08T01:29:02;98129.47;;;22.96;35.36
67818;BME280;54614;47.576;7.524;2024-03-08T01:31:31;98123.50;;;22.88;35.55
67818;BME280;54614;47.576;7.524;2024-03-08T01:33:58;98116.91;;;22.90;35.08
67818;BME280;54614;47.576;7.524;2024-03-08T01:36:24;98112.75;;;22.94;35.08
67818;BME280;54614;47.576;7.524;2024-03-08T01:38:51;98108.84;;;22.90;35.17
67818;BME280;54614;47.576;7.524;2024-03-08T01:41:17;98108.25;;;22.88;35.26
67818;BME280;54614;47.576;7.524;2024-03-08T01:43:44;98108.66;;;22.85;35.24
67818;BME280;54614;47.576;7.524;2024-03-08T01:46:15;98092.38;;;22.87;35.04
67818;BME280;54614;47.576;7.524;2024-03-08T01:48:42;98101.25;;;22.87;35.18
67818;BME280;54614;47.576;7.524;2024-03-08T01:51:10;98089.28;;;22.83;35.42
67818;BME280;54614;47.576;7.524;2024-03-08T01:53:38;98089.91;;;22.85;35.48
67818;BME280;54614;47.576;7.524;2024-03-08T01:56:05;98083.72;;;22.85;35.22
67818;BME280;54614;47.576;7.524;2024-03-08T01:58:32;98081.47;;;22.81;35.41
67818;BME280;54614;47.576;7.524;2024-03-08T02:00:59;98082.88;;;22.84;35.39
67818;BME280;54614;47.576;7.524;2024-03-08T02:03:25;98075.28;;;22.81;35.60
67818;BME280;54614;47.576;7.524;2024-03-08T02:05:51;98070.13;;;22.79;35.27
67818;BME280;54614;47.576;7.524;2024-03-08T02:08:20;98067.84;;;22.83;35.39
67818;BME280;54614;47.576;7.524;2024-03-08T02:10:48;98065.38;;;22.81;35.43
67818;BME280;54614;47.576;7.524;2024-03-08T02:13:14;98067.00;;;22.82;35.40
67818;BME280;54614;47.576;7.524;2024-03-08T02:16:10;98063.09;;;22.78;35.63
67818;BME280;54614;47.576;7.524;2024-03-08T02:18:36;98053.81;;;22.81;35.11
67818;BME280;54614;47.576;7.524;2024-03-08T02:21:04;98057.72;;;22.85;35.19
67818;BME280;54614;47.576;7.524;2024-03-08T02:23:30;98054.81;;;22.87;35.24
67818;BME280;54614;47.576;7.524;2024-03-08T02:25:57;98055.03;;;22.85;35.28
67818;BME280;54614;47.576;7.524;2024-03-08T02:28:24;98050.94;;;22.82;35.29
67818;BME280;54614;47.576;7.524;2024-03-08T02:30:53;98044.31;;;22.85;34.97
67818;BME280;54614;47.576;7.524;2024-03-08T02:33:22;98044.31;;;22.78;35.34
67818;BME280;54614;47.576;7.524;2024-03-08T02:35:49;98043.09;;;22.81;35.43
67818;BME280;54614;47.576;7.524;2024-03-08T02:38:18;98043.50;;;22.78;35.13
67818;BME280;54614;47.576;7.524;2024-03-08T02:40:49;98049.50;;;22.80;35.19
67818;BME280;54614;47.576;7.524;2024-03-08T02:43:18;98041.25;;;22.81;34.88
67818;BME280;54614;47.576;7.524;2024-03-08T02:45:45;98045.56;;;22.76;35.46
67818;BME280;54614;47.576;7.524;2024-03-08T02:48:12;98044.53;;;22.77;35.33
67818;BME280;54614;47.576;7.524;2024-03-08T02:50:38;98037.31;;;22.77;35.72
67818;BME280;54614;47.576;7.524;2024-03-08T02:53:12;98037.50;;;22.76;35.23
67818;BME280;54614;47.576;7.524;2024-03-08T02:55:41;98035.06;;;22.74;35.59
67818;BME280;54614;47.576;7.524;2024-03-08T02:58:08;98030.13;;;22.71;35.62
67818;BME280;54614;47.576;7.524;2024-03-08T03:00:38;98028.47;;;22.70;35.61
67818;BME280;54614;47.576;7.524;2024-03-08T03:03:07;98028.91;;;22.67;35.32
67818;BME280;54614;47.576;7.524;2024-03-08T03:05:33;98029.28;;;22.71;35.29
67818;BME280;54614;47.576;7.524;2024-03-08T03:07:59;98021.66;;;22.68;35.25
67818;BME280;54614;47.576;7.524;2024-03-08T03:10:25;98018.56;;;22.71;35.53
67818;BME280;54614;47.576;7.524;2024-03-08T03:12:51;98013.63;;;22.68;35.46
67818;BME280;54614;47.576;7.524;2024-03-08T03:15:18;98004.78;;;22.61;35.21
67818;BME280;54614;47.576;7.524;2024-03-08T03:17:49;98009.91;;;22.69;35.51
67818;BME280;54614;47.576;7.524;2024-03-08T03:20:19;98018.16;;;22.67;35.55
67818;BME280;54614;47.576;7.524;2024-03-08T03:22:52;98010.34;;;22.66;35.32
67818;BME280;54614;47.576;7.524;2024-03-08T03:25:21;98015.09;;;22.64;35.38
67818;BME280;54614;47.576;7.524;2024-03-08T03:27:59;98004.97;;;22.66;35.63
67818;BME280;54614;47.576;7.524;2024-03-08T03:30:25;98003.72;;;22.68;35.16
67818;BME280;54614;47.576;7.524;2024-03-08T03:32:59;98003.53;;;22.63;35.25
67818;BME280;54614;47.576;7.524;2024-03-08T03:35:33;97997.16;;;22.64;35.19
67818;BME280;54614;47.576;7.524;2024-03-08T03:37:59;98004.38;;;22.64;35.39
67818;BME280;54614;47.576;7.524;2024-03-08T03:40:43;97997.75;;;22.66;35.19
67818;BME280;54614;47.576;7.524;2024-03-08T03:43:10;97987.28;;;22.58;35.47
67818;BME280;54614;47.576;7.524;2024-03-08T03:45:37;97991.00;;;22.57;35.52
67818;BME280;54614;47.576;7.524;2024-03-08T03:48:04;97993.47;;;22.59;35.63
67818;BME280;54614;47.576;7.524;2024-03-08T03:50:32;97988.75;;;22.54;35.57
67818;BME280;54614;47.576;7.524;2024-03-08T03:53:01;97989.78;;;22.53;35.53
67818;BME280;54614;47.576;7.524;2024-03-08T03:55:28;97989.75;;;22.60;35.49
67818;BME280;54614;47.576;7.524;2024-03-08T03:57:55;97987.28;;;22.58;35.10
67818;BME280;54614;47.576;7.524;2024-03-08T04:00:21;97979.28;;;22.51;35.48
67818;BME280;54614;47.576;7.524;2024-03-08T04:02:46;97978.63;;;22.56;35.11
67818;BME280;54614;47.576;7.524;2024-03-08T04:05:12;97986.28;;;22.52;35.36
67818;BME280;54614;47.576;7.524;2024-03-08T04:07:39;97988.31;;;22.57;35.15
67818;BME280;54614;47.576;7.524;2024-03-08T04:10:07;97977.41;;;22.52;35.50
67818;BME280;54614;47.576;7.524;2024-03-08T04:12:34;97978.84;;;22.55;35.28
67818;BME280;54614;47.576;7.524;2024-03-08T04:15:00;97980.50;;;22.49;35.43
67818;BME280;54614;47.576;7.524;2024-03-08T04:17:26;97975.56;;;22.52;35.53
67818;BME280;54614;47.576;7.524;2024-03-08T04:19:53;97969.16;;;22.54;35.46
67818;BME280;54614;47.576;7.524;2024-03-08T04:22:19;97982.16;;;22.50;35.64
67818;BME280;54614;47.576;7.524;2024-03-08T04:24:46;97978.22;;;22.52;35.00
67818;BME280;54614;47.576;7.524;2024-03-08T04:27:13;97982.97;;;22.50;35.59
67818;BME280;54614;47.576;7.524;2024-03-08T04:29:40;97975.38;;;22.47;35.49
67818;BME280;54614;47.576;7.524;2024-03-08T04:32:06;97971.66;;;22.48;35.62
67818;BME280;54614;47.576;7.524;2024-03-08T04:34:34;97978.16;;;22.66;35.59
67818;BME280;54614;47.576;7.524;2024-03-08T04:37:03;97974.66;;;22.65;34.94
67818;BME280;54614;47.576;7.524;2024-03-08T04:39:31;97967.72;;;22.51;35.68
67818;BME280;54614;47.576;7.524;2024-03-08T04:42:02;97965.00;;;22.58;35.23
67818;BME280;54614;47.576;7.524;2024-03-08T04:44:30;97967.09;;;22.56;35.52
67818;BME280;54614;47.576;7.524;2024-03-08T04:46:57;97967.91;;;22.56;35.46
67818;BME280;54614;47.576;7.524;2024-03-08T04:49:23;97967.72;;;22.51;35.54
67818;BME280;54614;47.576;7.524;2024-03-08T04:51:49;97970.19;;;22.52;35.33
67818;BME280;54614;47.576;7.524;2024-03-08T04:54:15;97963.38;;;22.57;35.28
67818;BME280;54614;47.576;7.524;2024-03-08T04:56:40;97950.00;;;22.50;35.54
67818;BME280;54614;47.576;7.524;2024-03-08T04:59:06;97960.47;;;22.58;35.36
67818;BME280;54614;47.576;7.524;2024-03-08T05:01:34;97956.13;;;22.64;35.22
67818;BME280;54614;47.576;7.524;2024-03-08T05:04:04;97960.66;;;22.63;35.29
67818;BME280;54614;47.576;7.524;2024-03-08T05:06:30;97953.03;;;22.60;35.16
67818;BME280;54614;47.576;7.524;2024-03-08T05:08:56;97961.50;;;22.57;35.05
67818;BME280;54614;47.576;7.524;2024-03-08T05:11:21;97957.00;;;22.51;35.49
67818;BME280;54614;47.576;7.524;2024-03-08T05:13:47;97958.84;;;22.57;35.23
67818;BME280;54614;47.576;7.524;2024-03-08T05:16:13;97953.66;;;22.62;35.46
67818;BME280;54614;47.576;7.524;2024-03-08T05:18:41;97955.97;;;22.52;35.41
67818;BME280;54614;47.576;7.524;2024-03-08T05:21:07;97956.38;;;22.56;35.03
67818;BME280;54614;47.576;7.524;2024-03-08T05:23:35;97956.59;;;22.54;34.87
67818;BME280;54614;47.576;7.524;2024-03-08T05:26:00;97968.00;;;22.36;34.60
67818;BME280;54614;47.576;7.524;2024-03-08T05:28:26;97958.09;;;22.37;34.61
67818;BME280;54614;47.576;7.524;2024-03-08T05:30:52;97954.34;;;22.44;35.29
67818;BME280;54614;47.576;7.524;2024-03-08T05:33:18;97962.22;;;22.39;34.61
67818;BME280;54614;47.576;7.524;2024-03-08T05:35:45;97948.63;;;22.34;34.73
67818;BME280;54614;47.576;7.524;2024-03-08T05:38:10;97944.72;;;22.30;34.61
67818;BME280;54614;47.576;7.524;2024-03-08T05:40:38;97944.13;;;22.28;35.13
67818;BME280;54614;47.576;7.524;2024-03-08T05:43:04;97943.66;;;22.38;35.54
67818;BME280;54614;47.576;7.524;2024-03-08T05:45:31;97943.69;;;22.31;35.25
67818;BME280;54614;47.576;7.524;2024-03-08T05:47:56;97941.00;;;22.31;35.13
67818;BME280;54614;47.576;7.524;2024-03-08T05:50:22;97943.06;;;22.36;34.85
67818;BME280;54614;47.576;7.524;2024-03-08T05:52:48;97944.72;;;22.30;35.18
67818;BME280;54614;47.576;7.524;2024-03-08T05:55:15;97939.75;;;22.40;35.54
67818;BME280;54614;47.576;7.524;2024-03-08T05:57:41;97932.94;;;22.38;35.56
67818;BME280;54614;47.576;7.524;2024-03-08T06:00:09;97925.72;;;22.38;35.33
67818;BME280;54614;47.576;7.524;2024-03-08T06:02:38;97924.09;;;22.37;35.30
67818;BME280;54614;47.576;7.524;2024-03-08T06:05:11;97926.69;;;22.50;35.61
67818;BME280;54614;47.576;7.524;2024-03-08T06:07:37;97926.31;;;22.47;35.22
67818;BME280;54614;47.576;7.524;2024-03-08T06:10:11;97925.28;;;22.48;35.55
67818;BME280;54614;47.576;7.524;2024-03-08T06:12:40;97920.16;;;22.40;35.39
67818;BME280;54614;47.576;7.524;2024-03-08T06:15:09;97918.88;;;22.49;35.28
67818;BME280;54614;47.576;7.524;2024-03-08T06:17:38;97917.44;;;22.46;35.21
67818;BME280;54614;47.576;7.524;2024-03-08T06:20:05;97918.28;;;22.47;35.46
67818;BME280;54614;47.576;7.524;2024-03-08T06:22:42;97904.25;;;22.45;35.49
67818;BME280;54614;47.576;7.524;2024-03-08T06:25:09;97896.44;;;22.43;35.36
67818;BME280;54614;47.576;7.524;2024-03-08T06:27:36;97894.75;;;22.49;35.27
67818;BME280;54614;47.576;7.524;2024-03-08T06:30:03;97899.72;;;22.45;35.36
67818;BME280;54614;47.576;7.524;2024-03-08T06:32:30;97891.22;;;22.55;35.54
67818;BME280;54614;47.576;7.524;2024-03-08T06:34:56;97897.41;;;22.56;35.51
67818;BME280;54614;47.576;7.524;2024-03-08T06:37:22;97895.31;;;22.58;35.22
67818;BME280;54614;47.576;7.524;2024-03-08T06:39:49;97900.50;;;22.52;34.65
67818;BME280;54614;47.576;7.524;2024-03-08T06:42:17;97904.28;;;22.38;35.73
67818;BME280;54614;47.576;7.524;2024-03-08T06:44:43;97900.91;;;22.56;36.94
67818;BME280;54614;47.576;7.524;2024-03-08T06:47:15;97908.50;;;22.59;37.34
67818;BME280;54614;47.576;7.524;2024-03-08T06:49:44;97904.09;;;22.40;38.75
67818;BME280;54614;47.576;7.524;2024-03-08T06:52:11;97912.09;;;22.46;39.26
67818;BME280;54614;47.576;7.524;2024-03-08T06:54:37;97905.53;;;23.80;44.27
67818;BME280;54614;47.576;7.524;2024-03-08T06:57:06;97905.38;;;24.11;41.77
67818;BME280;54614;47.576;7.524;2024-03-08T06:59:32;97906.88;;;23.89;37.02
67818;BME280;54614;47.576;7.524;2024-03-08T07:01:58;97914.78;;;22.78;38.05
67818;BME280;54614;47.576;7.524;2024-03-08T07:04:27;97922.31;;;22.63;38.45
67818;BME280;54614;47.576;7.524;2024-03-08T07:06:56;97914.13;;;22.51;37.37
67818;BME280;54614;47.576;7.524;2024-03-08T07:09:23;97913.38;;;22.37;37.46
67818;BME280;54614;47.576;7.524;2024-03-08T07:11:51;97915.00;;;22.38;37.08
67818;BME280;54614;47.576;7.524;2024-03-08T07:14:24;97907.19;;;22.37;37.20
67818;BME280;54614;47.576;7.524;2024-03-08T07:16:50;97907.69;;;22.59;37.19
67818;BME280;54614;47.576;7.524;2024-03-08T07:19:17;97916.84;;;22.44;36.95
67818;BME280;54614;47.576;7.524;2024-03-08T07:21:46;97907.34;;;22.48;37.01
67818;BME280;54614;47.576;7.524;2024-03-08T07:24:13;97902.44;;;22.39;36.91
67818;BME280;54614;47.576;7.524;2024-03-08T07:26:45;97910.47;;;22.77;36.72
67818;BME280;54614;47.576;7.524;2024-03-08T07:29:15;97904.84;;;22.92;37.10
67818;BME280;54614;47.576;7.524;2024-03-08T07:31:41;97907.50;;;22.92;37.06
67818;BME280;54614;47.576;7.524;2024-03-08T07:34:07;97914.31;;;22.94;37.08
67818;BME280;54614;47.576;7.524;2024-03-08T07:36:34;97908.78;;;22.89;37.21
67818;BME280;54614;47.576;7.524;2024-03-08T07:39:03;97909.38;;;22.91;37.62
67818;BME280;54614;47.576;7.524;2024-03-08T07:41:31;97910.81;;;22.94;37.27
67818;BME280;54614;47.576;7.524;2024-03-08T07:43:56;97905.66;;;22.92;37.22
67818;BME280;54614;47.576;7.524;2024-03-08T07:46:22;97903.19;;;22.91;37.63
67818;BME280;54614;47.576;7.524;2024-03-08T07:48:48;97904.88;;;22.85;37.33
67818;BME280;54614;47.576;7.524;2024-03-08T07:51:16;97900.34;;;22.86;37.39
67818;BME280;54614;47.576;7.524;2024-03-08T07:53:43;97902.38;;;22.90;37.22
67818;BME280;54614;47.576;7.524;2024-03-08T07:56:10;97901.72;;;22.95;36.94
67818;BME280;54614;47.576;7.524;2024-03-08T07:58:39;97901.78;;;22.88;37.25
67818;BME280;54614;47.576;7.524;2024-03-08T08:01:06;97898.03;;;22.89;37.39
67818;BME280;54614;47.576;7.524;2024-03-08T08:03:32;97890.59;;;22.91;37.31
67818;BME280;54614;47.576;7.524;2024-03-08T08:05:58;97891.81;;;22.95;37.32
67818;BME280;54614;47.576;7.524;2024-03-08T08:08:24;97888.91;;;22.97;37.27
67818;BME280;54614;47.576;7.524;2024-03-08T08:10:51;97893.28;;;22.91;37.22
67818;BME280;54614;47.576;7.524;2024-03-08T08:13:17;97894.09;;;22.92;37.43
67818;BME280;54614;47.576;7.524;2024-03-08T08:15:43;97890.38;;;22.93;36.84
67818;BME280;54614;47.576;7.524;2024-03-08T08:18:09;97887.72;;;22.93;36.93
67818;BME280;54614;47.576;7.524;2024-03-08T08:20:35;97891.25;;;22.87;37.17
67818;BME280;54614;47.576;7.524;2024-03-08T08:23:01;97893.06;;;22.93;36.91
67818;BME280;54614;47.576;7.524;2024-03-08T08:25:27;97885.84;;;22.93;37.06
67818;BME280;54614;47.576;7.524;2024-03-08T08:27:52;97883.56;;;22.97;36.95
67818;BME280;54614;47.576;7.524;2024-03-08T08:30:19;97875.88;;;23.00;36.83
67818;BME280;54614;47.576;7.524;2024-03-08T08:32:46;97873.31;;;22.87;36.88
67818;BME280;54614;47.576;7.524;2024-03-08T08:35:12;97871.00;;;22.91;36.71
67818;BME280;54614;47.576;7.524;2024-03-08T08:37:41;97874.69;;;22.96;36.77
67818;BME280;54614;47.576;7.524;2024-03-08T08:40:08;97873.69;;;22.91;37.05
67818;BME280;54614;47.576;7.524;2024-03-08T08:42:40;97866.41;;;22.98;37.15
67818;BME280;54614;47.576;7.524;2024-03-08T08:45:07;97882.91;;;23.01;36.56
67818;BME280;54614;47.576;7.524;2024-03-08T08:47:35;97872.06;;;22.90;36.56
67818;BME280;54614;47.576;7.524;2024-03-08T08:50:02;97875.16;;;22.87;36.85
67818;BME280;54614;47.576;7.524;2024-03-08T08:52:29;97869.75;;;22.93;36.62
67818;BME280;54614;47.576;7.524;2024-03-08T08:54:55;97876.97;;;22.93;36.72
67818;BME280;54614;47.576;7.524;2024-03-08T08:57:22;97872.59;;;22.98;36.86
67818;BME280;54614;47.576;7.524;2024-03-08T08:59:47;97871.56;;;22.99;36.70
67818;BME280;54614;47.576;7.524;2024-03-08T09:02:13;97866.69;;;22.90;36.75
67818;BME280;54614;47.576;7.524;2024-03-08T09:04:40;97866.47;;;22.91;36.84
67818;BME280;54614;47.576;7.524;2024-03-08T09:07:05;97871.84;;;22.91;36.71
67818;BME280;54614;47.576;7.524;2024-03-08T09:09:34;97863.31;;;23.01;36.59
67818;BME280;54614;47.576;7.524;2024-03-08T09:12:00;97861.53;;;22.88;36.38
67818;BME280;54614;47.576;7.524;2024-03-08T09:14:26;97857.28;;;23.05;35.96
67818;BME280;54614;47.576;7.524;2024-03-08T09:16:52;97856.25;;;23.06;35.97
67818;BME280;54614;47.576;7.524;2024-03-08T09:19:18;97859.81;;;23.00;36.14
67818;BME280;54614;47.576;7.524;2024-03-08T09:21:45;97853.34;;;23.08;36.33
67818;BME280;54614;47.576;7.524;2024-03-08T09:24:11;97847.75;;;23.09;36.38
67818;BME280;54614;47.576;7.524;2024-03-08T09:26:38;97851.25;;;22.85;36.48
67818;BME280;54614;47.576;7.524;2024-03-08T09:29:06;97838.50;;;22.80;36.70
67818;BME280;54614;47.576;7.524;2024-03-08T09:31:32;97846.66;;;22.92;36.63
67818;BME280;54614;47.576;7.524;2024-03-08T09:33:58;97836.88;;;23.04;36.68
67818;BME280;54614;47.576;7.524;2024-03-08T09:36:24;97836.38;;;22.89;36.14
67818;BME280;54614;47.576;7.524;2024-03-08T09:38:50;97834.91;;;22.62;36.67
67818;BME280;54614;47.576;7.524;2024-03-08T09:41:16;97830.84;;;22.52;36.68
67818;BME280;54614;47.576;7.524;2024-03-08T09:43:44;97831.72;;;22.71;36.53
67818;BME280;54614;47.576;7.524;2024-03-08T09:46:12;97826.53;;;22.76;37.01
67818;BME280;54614;47.576;7.524;2024-03-08T09:48:40;97831.28;;;22.81;36.53
67818;BME280;54614;47.576;7.524;2024-03-08T09:51:07;97824.44;;;23.10;36.22
67818;BME280;54614;47.576;7.524;2024-03-08T09:53:33;97826.75;;;23.06;36.53
67818;BME280;54614;47.576;7.524;2024-03-08T09:56:00;97823.28;;;22.99;36.64
67818;BME280;54614;47.576;7.524;2024-03-08T09:58:29;97820.78;;;22.79;37.23
67818;BME280;54614;47.576;7.524;2024-03-08T10:01:00;97816.00;;;22.81;37.31
67818;BME280;54614;47.576;7.524;2024-03-08T10:03:32;97812.84;;;22.91;36.74
67818;BME280;54614;47.576;7.524;2024-03-08T10:05:59;97801.28;;;23.34;35.87
67818;BME280;54614;47.576;7.524;2024-03-08T10:08:29;97797.50;;;23.41;35.64
67818;BME280;54614;47.576;7.524;2024-03-08T10:10:58;97797.81;;;23.52;35.65
67818;BME280;54614;47.576;7.524;2024-03-08T10:13:25;97787.34;;;23.25;35.92
67818;BME280;54614;47.576;7.524;2024-03-08T10:15:55;97790.09;;;23.19;36.53
67818;BME280;54614;47.576;7.524;2024-03-08T10:18:21;97791.91;;;23.25;36.08
67818;BME280;54614;47.576;7.524;2024-03-08T10:21:06;97786.00;;;23.34;35.96
67818;BME280;54614;47.576;7.524;2024-03-08T10:23:34;97783.09;;;23.36;36.15
67818;BME280;54614;47.576;7.524;2024-03-08T10:26:20;97781.78;;;23.63;35.62
67818;BME280;54614;47.576;7.524;2024-03-08T10:28:52;97772.84;;;23.69;35.55
67818;BME280;54614;47.576;7.524;2024-03-08T10:31:20;97769.03;;;23.77;35.47
67818;BME280;54614;47.576;7.524;2024-03-08T10:33:48;97766.13;;;23.78;35.26
67818;BME280;54614;47.576;7.524;2024-03-08T10:36:15;97756.63;;;23.94;35.10
67818;BME280;54614;47.576;7.524;2024-03-08T10:38:44;97754.34;;;24.09;34.61
67818;BME280;54614;47.576;7.524;2024-03-08T10:41:13;97759.75;;;24.21;34.86
67818;BME280;54614;47.576;7.524;2024-03-08T10:44:10;97760.75;;;24.08;34.92
67818;BME280;54614;47.576;7.524;2024-03-08T10:46:50;97759.00;;;24.02;35.13
67818;BME280;54614;47.576;7.524;2024-03-08T10:49:31;97756.69;;;24.18;34.76
67818;BME280;54614;47.576;7.524;2024-03-08T10:52:05;97751.78;;;24.15;35.09
67818;BME280;54614;47.576;7.524;2024-03-08T10:54:39;97748.28;;;24.14;34.65
67818;BME280;54614;47.576;7.524;2024-03-08T10:57:06;97744.88;;;24.37;34.62
67818;BME280;54614;47.576;7.524;2024-03-08T10:59:35;97742.28;;;24.30;34.44
67818;BME280;54614;47.576;7.524;2024-03-08T11:02:01;97737.78;;;24.24;34.86
67818;BME280;54614;47.576;7.524;2024-03-08T11:04:27;97730.16;;;24.39;34.57
67818;BME280;54614;47.576;7.524;2024-03-08T11:07:01;97732.03;;;24.39;34.51
67818;BME280;54614;47.576;7.524;2024-03-08T11:09:36;97722.44;;;24.31;34.71
67818;BME280;54614;47.576;7.524;2024-03-08T11:12:25;97721.41;;;24.44;34.89
67818;BME280;54614;47.576;7.524;2024-03-08T11:14:53;97709.97;;;24.60;34.29
67818;BME280;54614;47.576;7.524;2024-03-08T11:19:56;97711.03;;;24.71;34.36
67818;BME280;54614;47.576;7.524;2024-03-08T11:22:29;97706.69;;;24.82;34.19
67818;BME280;54614;47.576;7.524;2024-03-08T11:25:09;97699.56;;;24.64;34.52
67818;BME280;54614;47.576;7.524;2024-03-08T11:27:38;97685.41;;;24.45;35.00
67818;BME280;54614;47.576;7.524;2024-03-08T11:30:07;97674.41;;;24.58;34.58
67818;BME280;54614;47.576;7.524;2024-03-08T11:32:38;97675.00;;;24.84;34.20
67818;BME280;54614;47.576;7.524;2024-03-08T11:35:22;97676.06;;;24.83;34.26
67818;BME280;54614;47.576;7.524;2024-03-08T11:37:50;97673.25;;;24.89;34.22
67818;BME280;54614;47.576;7.524;2024-03-08T11:40:16;97669.03;;;24.82;34.23
67818;BME280;54614;47.576;7.524;2024-03-08T11:42:46;97666.22;;;24.88;34.23
67818;BME280;54614;47.576;7.524;2024-03-08T11:45:17;97665.16;;;24.89;34.37
67818;BME280;54614;47.576;7.524;2024-03-08T11:47:44;97650.34;;;24.98;34.12
67818;BME280;54614;47.576;7.524;2024-03-08T11:50:14;97647.16;;;25.01;34.08
67818;BME280;54614;47.576;7.524;2024-03-08T11:52:40;97641.66;;;25.08;33.67
67818;BME280;54614;47.576;7.524;2024-03-08T11:55:07;97645.50;;;25.12;33.77
67818;BME280;54614;47.576;7.524;2024-03-08T11:57:33;97651.63;;;24.84;34.51
67818;BME280;54614;47.576;7.524;2024-03-08T12:00:00;97636.75;;;24.93;34.12
67818;BME280;54614;47.576;7.524;2024-03-08T12:02:33;97627.19;;;24.97;34.23
67818;BME280;54614;47.576;7.524;2024-03-08T12:05:05;97626.47;;;24.90;34.19
67818;BME280;54614;47.576;7.524;2024-03-08T12:07:35;97624.22;;;25.11;34.04
67818;BME280;54614;47.576;7.524;2024-03-08T12:10:19;97615.47;;;24.92;34.49
67818;BME280;54614;47.576;7.524;2024-03-08T12:12:49;97604.09;;;25.13;33.84
67818;BME280;54614;47.576;7.524;2024-03-08T12:15:18;97597.91;;;25.13;34.03
67818;BME280;54614;47.576;7.524;2024-03-08T12:17:47;97594.91;;;24.97;34.17
67818;BME280;54614;47.576;7.524;2024-03-08T12:20:22;97591.09;;;25.22;33.77
67818;BME280;54614;47.576;7.524;2024-03-08T12:22:50;97590.03;;;25.23;33.97
67818;BME280;54614;47.576;7.524;2024-03-08T12:25:19;97590.50;;;25.20;33.69
67818;BME280;54614;47.576;7.524;2024-03-08T12:27:46;97581.84;;;25.18;33.78
67818;BME280;54614;47.576;7.524;2024-03-08T12:30:26;97580.69;;;25.14;33.82
67818;BME280;54614;47.576;7.524;2024-03-08T12:32:57;97570.28;;;25.17;34.07
67818;BME280;54614;47.576;7.524;2024-03-08T12:35:28;97570.72;;;24.74;34.66
67818;BME280;54614;47.576;7.524;2024-03-08T12:37:59;97571.94;;;24.31;35.51
67818;BME280;54614;47.576;7.524;2024-03-08T12:40:33;97554.84;;;24.14;35.88
67818;BME280;54614;47.576;7.524;2024-03-08T12:43:01;97555.22;;;24.29;35.51
67818;BME280;54614;47.576;7.524;2024-03-08T12:45:28;97550.31;;;24.26;35.67
67818;BME280;54614;47.576;7.524;2024-03-08T12:47:55;97540.47;;;24.20;35.79
67818;BME280;54614;47.576;7.524;2024-03-08T12:50:23;97535.81;;;24.16;36.01
67818;BME280;54614;47.576;7.524;2024-03-08T12:52:50;97529.03;;;24.01;35.92
67818;BME280;54614;47.576;7.524;2024-03-08T12:55:18;97527.03;;;23.97;36.04
67818;BME280;54614;47.576;7.524;2024-03-08T12:57:45;97521.56;;;24.15;36.09
67818;BME280;54614;47.576;7.524;2024-03-08T13:00:11;97524.72;;;24.12;35.80
67818;BME280;54614;47.576;7.524;2024-03-08T13:02:48;97513.03;;;24.06;35.90
67818;BME280;54614;47.576;7.524;2024-03-08T13:05:15;97503.22;;;24.00;36.20
67818;BME280;54614;47.576;7.524;2024-03-08T13:07:41;97506.13;;;24.10;35.95